sensor_id;sensor_type;location;lat;lon;timestamp;P1;durP1;ratioP1;P2;durP2;ratioP2
10031;SDS011;5056;44.272;19.892;2022-08-20T00:01:06;10.15;;;6.63;;
10031;SDS011;5056;44.272;19.892;2022-08-20T00:03:41;16.40;;;7.38;;
10031;SDS011;5056;44.272;19.892;2022-08-20T00:06:11;11.20;;;6.90;;
10031;SDS011;5056;44.272;19.892;2022-08-20T00:08:40;12.75;;;7.63;;
10031;SDS011;5056;44.272;19.892;2022-08-20T00:11:08;11.57;;;7.03;;
10031;SDS011;5056;44.272;19.892;2022-08-20T00:13:38;15.00;;;8.13;;
10031;SDS011;5056;44.272;19.892;2022-08-20T00:16:06;12.20;;;6.70;;
10031;SDS011;5056;44.272;19.892;2022-08-20T00:18:34;11.38;;;6.43;;
10031;SDS011;5056;44.272;19.892;2022-08-20T00:21:03;11.65;;;6.35;;
10031;SDS011;5056;44.272;19.892;2022-08-20T00:23:33;13.10;;;7.05;;
10031;SDS011;5056;44.272;19.892;2022-08-20T00:26:11;12.32;;;7.25;;
10031;SDS011;5056;44.272;19.892;2022-08-20T00:28:39;11.60;;;6.90;;
10031;SDS011;5056;44.272;19.892;2022-08-20T00:31:10;10.93;;;7.15;;
10031;SDS011;5056;44.272;19.892;2022-08-20T00:33:48;10.32;;;6.40;;
10031;SDS011;5056;44.272;19.892;2022-08-20T00:36:15;12.40;;;6.47;;
10031;SDS011;5056;44.272;19.892;2022-08-20T00:39:02;12.20;;;6.70;;
10031;SDS011;5056;44.272;19.892;2022-08-20T00:41:29;12.20;;;6.45;;
10031;SDS011;5056;44.272;19.892;2022-08-20T00:44:04;12.57;;;7.30;;
10031;SDS011;5056;44.272;19.892;2022-08-20T00:46:37;10.98;;;6.70;;
10031;SDS011;5056;44.272;19.892;2022-08-20T00:49:06;10.68;;;6.28;;
10031;SDS011;5056;44.272;19.892;2022-08-20T00:51:39;8.43;;;6.68;;
10031;SDS011;5056;44.272;19.892;2022-08-20T00:54:11;8.48;;;6.20;;
10031;SDS011;5056;44.272;19.892;2022-08-20T00:56:46;14.48;;;6.47;;
10031;SDS011;5056;44.272;19.892;2022-08-20T00:59:17;8.18;;;6.00;;
10031;SDS011;5056;44.272;19.892;2022-08-20T01:01:50;11.82;;;6.22;;
10031;SDS011;5056;44.272;19.892;2022-08-20T01:04:17;10.20;;;6.38;;
10031;SDS011;5056;44.272;19.892;2022-08-20T01:06:44;8.70;;;6.13;;
10031;SDS011;5056;44.272;19.892;2022-08-20T01:09:15;9.68;;;6.00;;
10031;SDS011;5056;44.272;19.892;2022-08-20T01:11:43;11.40;;;6.13;;
10031;SDS011;5056;44.272;19.892;2022-08-20T01:14:10;12.20;;;6.10;;
10031;SDS011;5056;44.272;19.892;2022-08-20T01:16:48;10.40;;;6.13;;
10031;SDS011;5056;44.272;19.892;2022-08-20T01:19:18;9.20;;;6.65;;
10031;SDS011;5056;44.272;19.892;2022-08-20T01:21:53;12.65;;;6.28;;
10031;SDS011;5056;44.272;19.892;2022-08-20T01:24:23;10.52;;;6.72;;
10031;SDS011;5056;44.272;19.892;2022-08-20T01:26:54;14.60;;;6.85;;
10031;SDS011;5056;44.272;19.892;2022-08-20T01:29:24;9.00;;;6.35;;
10031;SDS011;5056;44.272;19.892;2022-08-20T01:32:00;7.88;;;6.38;;
10031;SDS011;5056;44.272;19.892;2022-08-20T01:34:28;12.40;;;6.78;;
10031;SDS011;5056;44.272;19.892;2022-08-20T01:36:57;8.88;;;6.78;;
10031;SDS011;5056;44.272;19.892;2022-08-20T01:39:28;11.27;;;6.18;;
10031;SDS011;5056;44.272;19.892;2022-08-20T01:42:02;10.55;;;6.35;;
10031;SDS011;5056;44.272;19.892;2022-08-20T01:44:35;12.43;;;6.18;;
10031;SDS011;5056;44.272;19.892;2022-08-20T01:47:14;10.75;;;6.45;;
10031;SDS011;5056;44.272;19.892;2022-08-20T01:49:45;7.72;;;5.20;;
10031;SDS011;5056;44.272;19.892;2022-08-20T01:52:20;7.78;;;5.47;;
10031;SDS011;5056;44.272;19.892;2022-08-20T01:54:49;9.10;;;6.32;;
10031;SDS011;5056;44.272;19.892;2022-08-20T01:57:20;10.90;;;5.82;;
10031;SDS011;5056;44.272;19.892;2022-08-20T01:59:51;8.80;;;5.88;;
10031;SDS011;5056;44.272;19.892;2022-08-20T02:02:19;10.48;;;5.40;;
10031;SDS011;5056;44.272;19.892;2022-08-20T02:04:53;6.97;;;5.53;;
10031;SDS011;5056;44.272;19.892;2022-08-20T02:07:23;11.07;;;5.50;;
10031;SDS011;5056;44.272;19.892;2022-08-20T02:09:53;9.55;;;5.78;;
10031;SDS011;5056;44.272;19.892;2022-08-20T02:12:22;8.93;;;6.65;;
10031;SDS011;5056;44.272;19.892;2022-08-20T02:14:51;15.10;;;6.80;;
10031;SDS011;5056;44.272;19.892;2022-08-20T02:17:20;11.43;;;6.75;;
10031;SDS011;5056;44.272;19.892;2022-08-20T02:20:05;11.27;;;5.90;;
10031;SDS011;5056;44.272;19.892;2022-08-20T02:22:41;9.75;;;6.03;;
10031;SDS011;5056;44.272;19.892;2022-08-20T02:25:13;15.20;;;7.20;;
10031;SDS011;5056;44.272;19.892;2022-08-20T02:27:44;10.63;;;6.88;;
10031;SDS011;5056;44.272;19.892;2022-08-20T02:30:14;12.30;;;7.13;;
10031;SDS011;5056;44.272;19.892;2022-08-20T02:32:42;13.20;;;6.85;;
10031;SDS011;5056;44.272;19.892;2022-08-20T02:35:09;9.02;;;6.70;;
10031;SDS011;5056;44.272;19.892;2022-08-20T02:37:38;14.50;;;6.30;;
10031;SDS011;5056;44.272;19.892;2022-08-20T02:40:07;8.00;;;6.45;;
10031;SDS011;5056;44.272;19.892;2022-08-20T02:42:39;9.30;;;7.20;;
10031;SDS011;5056;44.272;19.892;2022-08-20T02:45:12;13.77;;;6.88;;
10031;SDS011;5056;44.272;19.892;2022-08-20T02:47:41;9.23;;;6.10;;
10031;SDS011;5056;44.272;19.892;2022-08-20T02:50:10;13.02;;;6.85;;
10031;SDS011;5056;44.272;19.892;2022-08-20T02:52:39;13.13;;;6.93;;
10031;SDS011;5056;44.272;19.892;2022-08-20T02:55:17;12.07;;;7.15;;
10031;SDS011;5056;44.272;19.892;2022-08-20T02:57:44;9.57;;;7.50;;
10031;SDS011;5056;44.272;19.892;2022-08-20T03:00:19;10.73;;;6.72;;
10031;SDS011;5056;44.272;19.892;2022-08-20T03:05:29;12.07;;;6.80;;
10031;SDS011;5056;44.272;19.892;2022-08-20T03:07:56;8.23;;;6.82;;
10031;SDS011;5056;44.272;19.892;2022-08-20T03:10:25;8.35;;;6.72;;
10031;SDS011;5056;44.272;19.892;2022-08-20T03:12:55;13.75;;;7.28;;
10031;SDS011;5056;44.272;19.892;2022-08-20T03:15:25;15.50;;;7.95;;
10031;SDS011;5056;44.272;19.892;2022-08-20T03:17:52;11.90;;;8.45;;
10031;SDS011;5056;44.272;19.892;2022-08-20T03:20:23;13.95;;;7.93;;
10031;SDS011;5056;44.272;19.892;2022-08-20T03:22:51;10.30;;;8.10;;
10031;SDS011;5056;44.272;19.892;2022-08-20T03:25:19;12.50;;;8.93;;
10031;SDS011;5056;44.272;19.892;2022-08-20T03:27:47;11.68;;;9.13;;
10031;SDS011;5056;44.272;19.892;2022-08-20T03:30:15;16.67;;;10.02;;
10031;SDS011;5056;44.272;19.892;2022-08-20T03:32:52;12.40;;;8.75;;
10031;SDS011;5056;44.272;19.892;2022-08-20T03:35:21;11.52;;;8.80;;
10031;SDS011;5056;44.272;19.892;2022-08-20T03:37:49;14.15;;;8.07;;
10031;SDS011;5056;44.272;19.892;2022-08-20T03:40:18;11.63;;;8.98;;
10031;SDS011;5056;44.272;19.892;2022-08-20T03:42:47;12.63;;;9.88;;
10031;SDS011;5056;44.272;19.892;2022-08-20T03:45:17;15.63;;;10.15;;
10031;SDS011;5056;44.272;19.892;2022-08-20T03:47:46;18.60;;;10.02;;
10031;SDS011;5056;44.272;19.892;2022-08-20T03:50:16;14.93;;;9.95;;
10031;SDS011;5056;44.272;19.892;2022-08-20T03:52:45;16.88;;;10.57;;
10031;SDS011;5056;44.272;19.892;2022-08-20T03:55:12;15.02;;;10.48;;
10031;SDS011;5056;44.272;19.892;2022-08-20T03:57:42;12.35;;;10.73;;
10031;SDS011;5056;44.272;19.892;2022-08-20T04:00:12;11.43;;;9.77;;
10031;SDS011;5056;44.272;19.892;2022-08-20T04:05:34;18.25;;;9.30;;
10031;SDS011;5056;44.272;19.892;2022-08-20T04:08:06;14.35;;;10.35;;
10031;SDS011;5056;44.272;19.892;2022-08-20T04:10:34;11.45;;;9.77;;
10031;SDS011;5056;44.272;19.892;2022-08-20T04:13:06;13.75;;;9.88;;
10031;SDS011;5056;44.272;19.892;2022-08-20T04:15:35;14.90;;;10.15;;
10031;SDS011;5056;44.272;19.892;2022-08-20T04:18:06;15.80;;;10.55;;
10031;SDS011;5056;44.272;19.892;2022-08-20T04:20:37;18.98;;;9.98;;
10031;SDS011;5056;44.272;19.892;2022-08-20T04:23:07;14.82;;;10.57;;
10031;SDS011;5056;44.272;19.892;2022-08-20T04:25:35;13.57;;;10.40;;
10031;SDS011;5056;44.272;19.892;2022-08-20T04:28:06;16.17;;;10.57;;
10031;SDS011;5056;44.272;19.892;2022-08-20T04:30:35;14.30;;;10.55;;
10031;SDS011;5056;44.272;19.892;2022-08-20T04:33:03;15.95;;;10.68;;
10031;SDS011;5056;44.272;19.892;2022-08-20T04:35:32;13.10;;;10.38;;
10031;SDS011;5056;44.272;19.892;2022-08-20T04:38:01;15.77;;;11.05;;
10031;SDS011;5056;44.272;19.892;2022-08-20T04:40:30;16.25;;;11.32;;
10031;SDS011;5056;44.272;19.892;2022-08-20T04:43:16;16.88;;;11.20;;
10031;SDS011;5056;44.272;19.892;2022-08-20T04:45:44;17.40;;;11.00;;
10031;SDS011;5056;44.272;19.892;2022-08-20T04:48:12;15.43;;;10.88;;
10031;SDS011;5056;44.272;19.892;2022-08-20T04:50:42;14.55;;;10.88;;
10031;SDS011;5056;44.272;19.892;2022-08-20T04:53:12;17.38;;;14.82;;
10031;SDS011;5056;44.272;19.892;2022-08-20T04:55:43;19.60;;;14.05;;
10031;SDS011;5056;44.272;19.892;2022-08-20T04:58:13;18.08;;;13.48;;
10031;SDS011;5056;44.272;19.892;2022-08-20T05:00:46;17.15;;;12.48;;
10031;SDS011;5056;44.272;19.892;2022-08-20T05:03:14;17.67;;;11.85;;
10031;SDS011;5056;44.272;19.892;2022-08-20T05:05:44;16.77;;;11.02;;
10031;SDS011;5056;44.272;19.892;2022-08-20T05:08:12;16.98;;;11.50;;
10031;SDS011;5056;44.272;19.892;2022-08-20T05:10:56;14.77;;;10.55;;
10031;SDS011;5056;44.272;19.892;2022-08-20T05:13:25;16.48;;;12.00;;
10031;SDS011;5056;44.272;19.892;2022-08-20T05:15:53;16.05;;;11.45;;
10031;SDS011;5056;44.272;19.892;2022-08-20T05:18:39;12.60;;;10.82;;
10031;SDS011;5056;44.272;19.892;2022-08-20T05:21:12;21.45;;;12.20;;
10031;SDS011;5056;44.272;19.892;2022-08-20T05:23:39;22.52;;;12.95;;
10031;SDS011;5056;44.272;19.892;2022-08-20T05:26:08;17.88;;;12.43;;
10031;SDS011;5056;44.272;19.892;2022-08-20T05:28:38;18.77;;;11.73;;
10031;SDS011;5056;44.272;19.892;2022-08-20T05:31:06;16.05;;;11.85;;
10031;SDS011;5056;44.272;19.892;2022-08-20T05:33:34;14.05;;;10.95;;
10031;SDS011;5056;44.272;19.892;2022-08-20T05:36:03;14.07;;;10.77;;
10031;SDS011;5056;44.272;19.892;2022-08-20T05:38:34;15.48;;;10.43;;
10031;SDS011;5056;44.272;19.892;2022-08-20T05:41:01;14.00;;;10.70;;
10031;SDS011;5056;44.272;19.892;2022-08-20T05:43:29;15.80;;;12.02;;
10031;SDS011;5056;44.272;19.892;2022-08-20T05:49:17;19.05;;;12.52;;
10031;SDS011;5056;44.272;19.892;2022-08-20T05:51:45;15.93;;;11.50;;
10031;SDS011;5056;44.272;19.892;2022-08-20T05:54:14;18.83;;;12.25;;
10031;SDS011;5056;44.272;19.892;2022-08-20T05:56:41;19.70;;;12.65;;
10031;SDS011;5056;44.272;19.892;2022-08-20T05:59:09;13.07;;;11.63;;
10031;SDS011;5056;44.272;19.892;2022-08-20T06:01:38;14.00;;;11.63;;
10031;SDS011;5056;44.272;19.892;2022-08-20T06:04:06;17.98;;;11.77;;
10031;SDS011;5056;44.272;19.892;2022-08-20T06:06:53;14.15;;;11.25;;
10031;SDS011;5056;44.272;19.892;2022-08-20T06:09:23;16.30;;;11.20;;
10031;SDS011;5056;44.272;19.892;2022-08-20T06:11:51;13.90;;;11.52;;
10031;SDS011;5056;44.272;19.892;2022-08-20T06:14:20;18.38;;;13.07;;
10031;SDS011;5056;44.272;19.892;2022-08-20T06:16:47;19.00;;;12.30;;
10031;SDS011;5056;44.272;19.892;2022-08-20T06:19:15;19.27;;;12.00;;
10031;SDS011;5056;44.272;19.892;2022-08-20T06:21:41;19.90;;;13.50;;
10031;SDS011;5056;44.272;19.892;2022-08-20T06:24:09;16.67;;;12.27;;
10031;SDS011;5056;44.272;19.892;2022-08-20T06:26:38;18.05;;;13.13;;
10031;SDS011;5056;44.272;19.892;2022-08-20T06:29:05;14.18;;;12.77;;
10031;SDS011;5056;44.272;19.892;2022-08-20T06:31:32;17.13;;;13.55;;
10031;SDS011;5056;44.272;19.892;2022-08-20T06:34:04;16.23;;;13.30;;
10031;SDS011;5056;44.272;19.892;2022-08-20T06:36:31;15.20;;;12.63;;
10031;SDS011;5056;44.272;19.892;2022-08-20T06:38:58;18.95;;;14.32;;
10031;SDS011;5056;44.272;19.892;2022-08-20T06:41:26;18.10;;;13.40;;
10031;SDS011;5056;44.272;19.892;2022-08-20T06:43:55;20.75;;;14.25;;
10031;SDS011;5056;44.272;19.892;2022-08-20T06:49:28;23.33;;;13.63;;
10031;SDS011;5056;44.272;19.892;2022-08-20T06:51:54;16.83;;;12.57;;
10031;SDS011;5056;44.272;19.892;2022-08-20T06:54:22;23.60;;;12.60;;
10031;SDS011;5056;44.272;19.892;2022-08-20T06:56:49;16.58;;;11.20;;
10031;SDS011;5056;44.272;19.892;2022-08-20T06:59:19;14.88;;;11.45;;
10031;SDS011;5056;44.272;19.892;2022-08-20T07:01:47;13.85;;;10.25;;
10031;SDS011;5056;44.272;19.892;2022-08-20T07:04:14;13.32;;;10.40;;
10031;SDS011;5056;44.272;19.892;2022-08-20T07:06:41;12.45;;;10.98;;
10031;SDS011;5056;44.272;19.892;2022-08-20T07:09:08;14.40;;;10.52;;
10031;SDS011;5056;44.272;19.892;2022-08-20T07:11:36;11.43;;;10.23;;
10031;SDS011;5056;44.272;19.892;2022-08-20T07:14:02;14.43;;;10.90;;
10031;SDS011;5056;44.272;19.892;2022-08-20T07:16:31;18.85;;;11.93;;
10031;SDS011;5056;44.272;19.892;2022-08-20T07:18:58;16.00;;;11.05;;
10031;SDS011;5056;44.272;19.892;2022-08-20T07:21:25;17.00;;;11.40;;
10031;SDS011;5056;44.272;19.892;2022-08-20T07:23:52;16.52;;;11.43;;
10031;SDS011;5056;44.272;19.892;2022-08-20T07:26:19;16.30;;;10.48;;
10031;SDS011;5056;44.272;19.892;2022-08-20T07:28:46;20.88;;;12.57;;
10031;SDS011;5056;44.272;19.892;2022-08-20T07:31:13;16.77;;;11.27;;
10031;SDS011;5056;44.272;19.892;2022-08-20T07:34:00;20.70;;;13.02;;
10031;SDS011;5056;44.272;19.892;2022-08-20T07:36:27;18.95;;;13.32;;
10031;SDS011;5056;44.272;19.892;2022-08-20T07:38:55;16.88;;;12.90;;
10031;SDS011;5056;44.272;19.892;2022-08-20T07:41:22;13.93;;;12.55;;
10031;SDS011;5056;44.272;19.892;2022-08-20T07:43:49;17.15;;;12.98;;
10031;SDS011;5056;44.272;19.892;2022-08-20T07:46:17;24.98;;;12.25;;
10031;SDS011;5056;44.272;19.892;2022-08-20T07:48:45;17.83;;;13.25;;
10031;SDS011;5056;44.272;19.892;2022-08-20T07:51:18;14.35;;;12.30;;
10031;SDS011;5056;44.272;19.892;2022-08-20T07:53:47;13.25;;;11.85;;
10031;SDS011;5056;44.272;19.892;2022-08-20T07:56:18;14.90;;;11.38;;
10031;SDS011;5056;44.272;19.892;2022-08-20T07:58:51;23.98;;;12.25;;
10031;SDS011;5056;44.272;19.892;2022-08-20T08:01:21;14.90;;;11.43;;
10031;SDS011;5056;44.272;19.892;2022-08-20T08:03:49;15.10;;;12.00;;
10031;SDS011;5056;44.272;19.892;2022-08-20T08:06:21;14.20;;;12.27;;
10031;SDS011;5056;44.272;19.892;2022-08-20T08:08:49;13.70;;;12.38;;
10031;SDS011;5056;44.272;19.892;2022-08-20T08:11:16;15.93;;;12.45;;
10031;SDS011;5056;44.272;19.892;2022-08-20T08:13:44;15.95;;;13.20;;
10031;SDS011;5056;44.272;19.892;2022-08-20T08:16:12;16.73;;;13.52;;
10031;SDS011;5056;44.272;19.892;2022-08-20T08:18:40;16.88;;;12.70;;
10031;SDS011;5056;44.272;19.892;2022-08-20T08:21:09;14.15;;;11.05;;
10031;SDS011;5056;44.272;19.892;2022-08-20T08:23:39;17.33;;;11.43;;
10031;SDS011;5056;44.272;19.892;2022-08-20T08:26:08;14.50;;;11.23;;
10031;SDS011;5056;44.272;19.892;2022-08-20T08:28:36;17.55;;;12.25;;
10031;SDS011;5056;44.272;19.892;2022-08-20T08:31:03;15.50;;;11.65;;
10031;SDS011;5056;44.272;19.892;2022-08-20T08:33:31;18.13;;;13.10;;
10031;SDS011;5056;44.272;19.892;2022-08-20T08:36:02;18.52;;;11.32;;
10031;SDS011;5056;44.272;19.892;2022-08-20T08:38:30;15.90;;;11.18;;
10031;SDS011;5056;44.272;19.892;2022-08-20T08:41:03;15.40;;;10.48;;
10031;SDS011;5056;44.272;19.892;2022-08-20T08:46:45;14.93;;;12.07;;
10031;SDS011;5056;44.272;19.892;2022-08-20T08:49:15;18.90;;;11.57;;
10031;SDS011;5056;44.272;19.892;2022-08-20T08:51:45;15.88;;;11.38;;
10031;SDS011;5056;44.272;19.892;2022-08-20T08:54:14;18.35;;;13.82;;
10031;SDS011;5056;44.272;19.892;2022-08-20T08:56:46;13.93;;;12.57;;
10031;SDS011;5056;44.272;19.892;2022-08-20T08:59:15;16.13;;;12.43;;
10031;SDS011;5056;44.272;19.892;2022-08-20T09:01:42;21.00;;;16.67;;
10031;SDS011;5056;44.272;19.892;2022-08-20T09:04:11;16.77;;;15.13;;
10031;SDS011;5056;44.272;19.892;2022-08-20T09:06:38;21.50;;;19.30;;
10031;SDS011;5056;44.272;19.892;2022-08-20T09:09:09;19.63;;;17.38;;
10031;SDS011;5056;44.272;19.892;2022-08-20T09:11:44;19.30;;;17.33;;
10031;SDS011;5056;44.272;19.892;2022-08-20T09:14:16;27.10;;;24.35;;
10031;SDS011;5056;44.272;19.892;2022-08-20T09:16:43;26.45;;;23.20;;
10031;SDS011;5056;44.272;19.892;2022-08-20T09:19:14;26.30;;;23.40;;
10031;SDS011;5056;44.272;19.892;2022-08-20T09:21:40;28.15;;;25.13;;
10031;SDS011;5056;44.272;19.892;2022-08-20T09:24:08;26.02;;;23.23;;
10031;SDS011;5056;44.272;19.892;2022-08-20T09:26:36;22.73;;;20.60;;
10031;SDS011;5056;44.272;19.892;2022-08-20T09:29:05;23.55;;;21.13;;
10031;SDS011;5056;44.272;19.892;2022-08-20T09:31:32;23.52;;;20.83;;
10031;SDS011;5056;44.272;19.892;2022-08-20T09:33:59;26.23;;;23.70;;
10031;SDS011;5056;44.272;19.892;2022-08-20T09:36:28;25.15;;;22.70;;
10031;SDS011;5056;44.272;19.892;2022-08-20T09:38:55;28.30;;;25.52;;
10031;SDS011;5056;44.272;19.892;2022-08-20T09:41:23;27.27;;;24.90;;
10031;SDS011;5056;44.272;19.892;2022-08-20T09:43:50;28.67;;;26.08;;
10031;SDS011;5056;44.272;19.892;2022-08-20T09:46:20;29.52;;;26.80;;
10031;SDS011;5056;44.272;19.892;2022-08-20T09:48:48;28.52;;;25.95;;
10031;SDS011;5056;44.272;19.892;2022-08-20T09:51:16;33.53;;;30.17;;
10031;SDS011;5056;44.272;19.892;2022-08-20T09:53:44;33.67;;;30.55;;
10031;SDS011;5056;44.272;19.892;2022-08-20T09:56:12;33.75;;;30.67;;
10031;SDS011;5056;44.272;19.892;2022-08-20T09:58:50;34.80;;;31.45;;
10031;SDS011;5056;44.272;19.892;2022-08-20T10:01:20;35.30;;;31.80;;
10031;SDS011;5056;44.272;19.892;2022-08-20T10:03:48;31.65;;;28.70;;
10031;SDS011;5056;44.272;19.892;2022-08-20T10:06:15;29.80;;;27.27;;
10031;SDS011;5056;44.272;19.892;2022-08-20T10:08:43;33.65;;;30.63;;
10031;SDS011;5056;44.272;19.892;2022-08-20T10:11:11;31.95;;;29.13;;
10031;SDS011;5056;44.272;19.892;2022-08-20T10:13:38;34.08;;;30.63;;
10031;SDS011;5056;44.272;19.892;2022-08-20T10:16:09;33.97;;;30.63;;
10031;SDS011;5056;44.272;19.892;2022-08-20T10:18:38;33.38;;;29.77;;
10031;SDS011;5056;44.272;19.892;2022-08-20T10:21:07;33.53;;;30.17;;
10031;SDS011;5056;44.272;19.892;2022-08-20T10:23:34;32.70;;;29.52;;
10031;SDS011;5056;44.272;19.892;2022-08-20T10:26:01;29.40;;;26.67;;
10031;SDS011;5056;44.272;19.892;2022-08-20T10:28:28;29.88;;;26.92;;
10031;SDS011;5056;44.272;19.892;2022-08-20T10:30:55;29.92;;;27.30;;
10031;SDS011;5056;44.272;19.892;2022-08-20T10:33:24;27.30;;;24.80;;
10031;SDS011;5056;44.272;19.892;2022-08-20T10:35:54;25.00;;;22.45;;
10031;SDS011;5056;44.272;19.892;2022-08-20T10:38:22;23.30;;;21.20;;
10031;SDS011;5056;44.272;19.892;2022-08-20T10:40:50;25.02;;;22.60;;
10031;SDS011;5056;44.272;19.892;2022-08-20T10:43:17;29.48;;;23.95;;
10031;SDS011;5056;44.272;19.892;2022-08-20T10:45:44;25.25;;;22.73;;
10031;SDS011;5056;44.272;19.892;2022-08-20T10:48:12;28.88;;;24.02;;
10031;SDS011;5056;44.272;19.892;2022-08-20T10:50:40;23.92;;;21.63;;
10031;SDS011;5056;44.272;19.892;2022-08-20T10:53:09;23.20;;;21.00;;
10031;SDS011;5056;44.272;19.892;2022-08-20T10:55:37;27.02;;;24.33;;
10031;SDS011;5056;44.272;19.892;2022-08-20T10:58:04;24.05;;;21.65;;
10031;SDS011;5056;44.272;19.892;2022-08-20T11:00:32;26.08;;;23.52;;
10031;SDS011;5056;44.272;19.892;2022-08-20T11:03:00;25.35;;;22.88;;
10031;SDS011;5056;44.272;19.892;2022-08-20T11:05:28;24.27;;;22.17;;
10031;SDS011;5056;44.272;19.892;2022-08-20T11:07:56;26.95;;;24.27;;
10031;SDS011;5056;44.272;19.892;2022-08-20T11:10:31;26.20;;;23.80;;
10031;SDS011;5056;44.272;19.892;2022-08-20T11:12:59;23.88;;;21.88;;
10031;SDS011;5056;44.272;19.892;2022-08-20T11:15:28;25.92;;;23.38;;
10031;SDS011;5056;44.272;19.892;2022-08-20T11:20:37;27.48;;;24.77;;
10031;SDS011;5056;44.272;19.892;2022-08-20T11:23:05;28.42;;;25.48;;
10031;SDS011;5056;44.272;19.892;2022-08-20T11:25:35;27.67;;;24.95;;
10031;SDS011;5056;44.272;19.892;2022-08-20T11:28:03;26.45;;;23.83;;
10031;SDS011;5056;44.272;19.892;2022-08-20T11:30:33;29.00;;;25.15;;
10031;SDS011;5056;44.272;19.892;2022-08-20T11:33:03;27.33;;;24.75;;
10031;SDS011;5056;44.272;19.892;2022-08-20T11:35:33;27.92;;;25.20;;
10031;SDS011;5056;44.272;19.892;2022-08-20T11:38:18;27.67;;;24.95;;
10031;SDS011;5056;44.272;19.892;2022-08-20T11:40:48;26.02;;;23.33;;
10031;SDS011;5056;44.272;19.892;2022-08-20T11:43:15;26.45;;;23.75;;
10031;SDS011;5056;44.272;19.892;2022-08-20T11:45:43;28.27;;;25.05;;
10031;SDS011;5056;44.272;19.892;2022-08-20T11:48:12;25.67;;;23.38;;
10031;SDS011;5056;44.272;19.892;2022-08-20T11:50:46;27.92;;;25.20;;
10031;SDS011;5056;44.272;19.892;2022-08-20T11:53:13;23.23;;;21.33;;
10031;SDS011;5056;44.272;19.892;2022-08-20T11:55:41;24.38;;;22.08;;
10031;SDS011;5056;44.272;19.892;2022-08-20T11:58:29;26.65;;;24.00;;
10031;SDS011;5056;44.272;19.892;2022-08-20T12:00:57;26.23;;;23.52;;
10031;SDS011;5056;44.272;19.892;2022-08-20T12:03:25;25.58;;;23.17;;
10031;SDS011;5056;44.272;19.892;2022-08-20T12:05:52;24.88;;;22.35;;
10031;SDS011;5056;44.272;19.892;2022-08-20T12:08:22;24.63;;;22.63;;
10031;SDS011;5056;44.272;19.892;2022-08-20T12:10:49;26.20;;;23.67;;
10031;SDS011;5056;44.272;19.892;2022-08-20T12:13:16;32.80;;;29.48;;
10031;SDS011;5056;44.272;19.892;2022-08-20T12:15:46;29.23;;;26.42;;
10031;SDS011;5056;44.272;19.892;2022-08-20T12:18:14;28.17;;;25.30;;
10031;SDS011;5056;44.272;19.892;2022-08-20T12:20:43;28.05;;;25.25;;
10031;SDS011;5056;44.272;19.892;2022-08-20T12:23:14;28.55;;;25.58;;
10031;SDS011;5056;44.272;19.892;2022-08-20T12:25:43;27.58;;;24.70;;
10031;SDS011;5056;44.272;19.892;2022-08-20T12:28:13;28.30;;;25.70;;
10031;SDS011;5056;44.272;19.892;2022-08-20T12:30:41;28.02;;;25.15;;
10031;SDS011;5056;44.272;19.892;2022-08-20T12:33:11;26.02;;;23.42;;
10031;SDS011;5056;44.272;19.892;2022-08-20T12:35:39;26.38;;;23.85;;
10031;SDS011;5056;44.272;19.892;2022-08-20T12:38:13;24.80;;;22.60;;
10031;SDS011;5056;44.272;19.892;2022-08-20T12:40:44;26.08;;;23.73;;
10031;SDS011;5056;44.272;19.892;2022-08-20T12:43:11;24.30;;;22.13;;
10031;SDS011;5056;44.272;19.892;2022-08-20T12:45:39;24.00;;;21.60;;
10031;SDS011;5056;44.272;19.892;2022-08-20T12:51:27;24.55;;;22.27;;
10031;SDS011;5056;44.272;19.892;2022-08-20T12:53:56;25.42;;;23.10;;
10031;SDS011;5056;44.272;19.892;2022-08-20T12:56:23;25.30;;;22.90;;
10031;SDS011;5056;44.272;19.892;2022-08-20T12:58:51;25.13;;;22.55;;
10031;SDS011;5056;44.272;19.892;2022-08-20T13:01:18;25.42;;;22.98;;
10031;SDS011;5056;44.272;19.892;2022-08-20T13:03:50;23.38;;;21.27;;
10031;SDS011;5056;44.272;19.892;2022-08-20T13:06:19;24.85;;;22.70;;
10031;SDS011;5056;44.272;19.892;2022-08-20T13:08:52;24.75;;;22.52;;
10031;SDS011;5056;44.272;19.892;2022-08-20T13:11:19;26.95;;;23.77;;
10031;SDS011;5056;44.272;19.892;2022-08-20T13:13:48;25.23;;;23.02;;
10031;SDS011;5056;44.272;19.892;2022-08-20T13:16:17;24.08;;;22.02;;
10031;SDS011;5056;44.272;19.892;2022-08-20T13:18:47;28.48;;;25.60;;
10031;SDS011;5056;44.272;19.892;2022-08-20T13:21:15;25.92;;;23.80;;
10031;SDS011;5056;44.272;19.892;2022-08-20T13:23:43;27.73;;;24.98;;
10031;SDS011;5056;44.272;19.892;2022-08-20T13:26:12;32.33;;;28.80;;
10031;SDS011;5056;44.272;19.892;2022-08-20T13:28:40;33.70;;;29.67;;
10031;SDS011;5056;44.272;19.892;2022-08-20T13:31:08;33.13;;;29.85;;
10031;SDS011;5056;44.272;19.892;2022-08-20T13:33:36;35.40;;;31.80;;
10031;SDS011;5056;44.272;19.892;2022-08-20T13:36:03;33.25;;;30.15;;
10031;SDS011;5056;44.272;19.892;2022-08-20T13:38:31;33.67;;;30.48;;
10031;SDS011;5056;44.272;19.892;2022-08-20T13:40:58;33.83;;;30.55;;
10031;SDS011;5056;44.272;19.892;2022-08-20T13:43:29;34.40;;;31.20;;
10031;SDS011;5056;44.272;19.892;2022-08-20T13:45:57;33.95;;;30.77;;
10031;SDS011;5056;44.272;19.892;2022-08-20T13:48:24;35.92;;;32.33;;
10031;SDS011;5056;44.272;19.892;2022-08-20T13:50:53;34.47;;;30.95;;
10031;SDS011;5056;44.272;19.892;2022-08-20T13:53:22;32.90;;;29.95;;
10031;SDS011;5056;44.272;19.892;2022-08-20T13:55:50;34.10;;;30.60;;
10031;SDS011;5056;44.272;19.892;2022-08-20T13:58:23;36.00;;;32.28;;
10031;SDS011;5056;44.272;19.892;2022-08-20T14:00:53;34.85;;;31.30;;
10031;SDS011;5056;44.272;19.892;2022-08-20T14:03:26;33.65;;;30.38;;
10031;SDS011;5056;44.272;19.892;2022-08-20T14:05:53;33.38;;;30.17;;
10031;SDS011;5056;44.272;19.892;2022-08-20T14:08:23;33.33;;;30.05;;
10031;SDS011;5056;44.272;19.892;2022-08-20T14:10:55;32.33;;;29.35;;
10031;SDS011;5056;44.272;19.892;2022-08-20T14:13:23;33.38;;;30.15;;
10031;SDS011;5056;44.272;19.892;2022-08-20T14:15:54;30.75;;;28.08;;
10031;SDS011;5056;44.272;19.892;2022-08-20T14:18:28;32.28;;;28.95;;
10031;SDS011;5056;44.272;19.892;2022-08-20T14:20:55;31.55;;;28.65;;
10031;SDS011;5056;44.272;19.892;2022-08-20T14:23:23;32.70;;;29.92;;
10031;SDS011;5056;44.272;19.892;2022-08-20T14:25:50;34.47;;;30.42;;
10031;SDS011;5056;44.272;19.892;2022-08-20T14:31:11;34.80;;;31.35;;
10031;SDS011;5056;44.272;19.892;2022-08-20T14:33:38;34.92;;;31.60;;
10031;SDS011;5056;44.272;19.892;2022-08-20T14:36:15;33.88;;;30.52;;
10031;SDS011;5056;44.272;19.892;2022-08-20T14:38:42;30.80;;;28.10;;
10031;SDS011;5056;44.272;19.892;2022-08-20T14:41:10;33.65;;;30.17;;
10031;SDS011;5056;44.272;19.892;2022-08-20T14:43:42;31.73;;;28.65;;
10031;SDS011;5056;44.272;19.892;2022-08-20T14:46:12;33.38;;;30.35;;
10031;SDS011;5056;44.272;19.892;2022-08-20T14:49:00;32.35;;;29.27;;
10031;SDS011;5056;44.272;19.892;2022-08-20T14:51:27;33.28;;;29.80;;
10031;SDS011;5056;44.272;19.892;2022-08-20T14:53:58;33.25;;;30.08;;
10031;SDS011;5056;44.272;19.892;2022-08-20T14:56:27;31.15;;;28.48;;
10031;SDS011;5056;44.272;19.892;2022-08-20T14:59:08;30.55;;;27.77;;
10031;SDS011;5056;44.272;19.892;2022-08-20T15:01:38;33.05;;;30.00;;
10031;SDS011;5056;44.272;19.892;2022-08-20T15:04:05;34.17;;;30.65;;